Saturday, August 18, 2018, 2:00 PM GMT
Back to Local

CYOW, Ottawa Int'L. Ont.

Location: , , Canada Lat: 45.317
Local Time: 2:00 PM GMT (14:00 GMT) Lon: -75.667
Time Zone: GMT Elev: 380 ft

Show me the last for .
Show Coded

Time T Td Feel RH Dir Speed Gust Alt SLP Vis Weather Sky Remarks
2018-08-18 13:00 64 59 - 82 10° 12 - 29.95 29.96 15 FEW010 BKN240 None
2018-08-18 12:00 63 59 - 88 350° 10 - 29.96 29.96 15 BKN240 None
2018-08-18 11:00 61 57 - 87 350° 8 - 29.94 29.95 15 FEW040 BKN240 None
2018-08-18 10:00 61 57 - 87 10° 9 - 29.92 29.93 15 FEW012 FEW045 BKN230 None
2018-08-18 09:00 63 57 - 82 340° 9 - 29.92 29.92 15 FEW047 BKN220 None
2018-08-18 08:00 61 57 - 87 350° 9 - 29.91 29.91 15 FEW190 OVC230 None
2018-08-18 07:00 63 57 - 82 10° 6 - 29.90 29.90 15 FEW017 BKN210 BKN240 None
2018-08-18 06:00 63 59 - 88 360° 9 - 29.91 29.91 15 FEW017 BKN220 None
2018-08-18 05:00 64 59 - 82 340° 10 - 29.91 29.91 15 SCT017 BKN230 None
2018-08-18 04:00 64 59 - 82 340° 9 - 29.89 29.90 15 SCT018 BKN250 None
2018-08-18 03:00 64 59 - 82 330° 12 - 29.88 29.88 15 SCT018 BKN220 None
2018-08-18 02:00 66 61 - 82 340° 12 18 29.89 29.89 15 SCT018 BKN220 None
2018-08-18 01:00 66 61 - 82 340° 14 - 29.88 29.89 15 FEW020 BKN220 None
2018-08-18 00:00 68 63 - 82 340° 13 20 29.87 29.88 15 SCT022 BKN220 None
2018-08-17 23:15 70 64 - 83 340° 15 - 29.86 29.86 15 SCT014 SCT024 BKN250 None
2018-08-17 23:00 70 64 - 83 340° 18 - 29.85 29.86 15 BKN014 BKN024 BKN250 None
2018-08-17 22:17 70 64 - 83 320° 15 - 29.85 29.85 15 BKN012 None
2018-08-17 22:00 72 66 76 83 290° 17 - 29.85 29.85 15 BKN020 BKN030 None
2018-08-17 21:25 72 68 76 88 290° 14 22 29.84 29.85 15 SCT015 BKN022 Pressure rising rapidly
2018-08-17 21:00 73 70 77 88 300° 14 - 29.83 29.83 15 BKN011 BKN025 None
2018-08-17 20:43 75 72 79 88 200° 9 - 29.82 29.83 15 BKN011 BKN025 None
2018-08-17 20:15 73 72 78 94 220° 9 - 29.84 29.84 15 BKN013 BKN050 None
2018-08-17 20:00 73 72 78 94 190° 10 - 29.84 29.84 10 -RA BKN013 OVC025 None
2018-08-17 19:44 73 72 78 94 190° 12 - 29.84 29.85 8 -RA SCT010 OVC023 None
2018-08-17 19:00 72 70 76 94 180° 10 - 29.86 29.86 3 -RA BR OVC006 None
2018-08-17 18:29 72 70 76 94 190° 9 - 29.86 29.87 3 -RA BR OVC008 None
2018-08-17 18:10 72 70 76 94 180° 8 - 29.87 29.87 3 -RA OVC004 None
2018-08-17 18:00 72 70 76 94 180° 7 - 29.87 29.88 3 -RA OVC007 None
2018-08-17 17:30 72 70 76 94 170° 7 - 29.88 29.88 8 -RA BKN011 OVC040 None
2018-08-17 17:00 72 70 76 94 180° 7 - 29.88 29.89 10 -RA SCT012 OVC030 None
2018-08-17 16:00 73 70 77 88 160° 13 18 29.90 29.90 8 -RA OVC021 None
2018-08-17 15:00 72 68 76 88 110° 6 - 29.93 29.94 15 -RA BKN020 OVC080 None

Support USWX by starting your Amazon purchase here.